ZGGG Airport Information

Runway Information
Runway 02L Length 11811 ft width 148 ft
Elevation 41 ft Threshold 0 ft Heading 14
Runway 20R Length 11811 ft Width 148 ft
Elevation 43 ft Threshold 0 ft Heading 194
Runway 02R Length 12467 ft width 197 ft
Elevation 45 ft Threshold 0 ft Heading 14
Runway 20L Length 12467 ft Width 197 ft
Elevation 48 ft Threshold 670 ft Heading 194
Airport Frequencies
Type APP Name GUANGZHOU Frequency 120.4 MHZ
Type ATIS Name ATIS Frequency 128.6 MHZ
Type CLD Name CLD Frequency 121.95 MHZ
Type GND Name GND Frequency 121.75 MHZ
Type TWR Name TWR Frequency 118.1 MHZ
Airport Navaids
Type VOR-DME Name Cencun Frequency 114600 KHZ
Type VOR-DME Name Conghua Frequency 113000 KHZ
Type NDB Name Baiyun Frequency 411 KHZ
Type NDB Name Yanbu Frequency 423 KHZ
Type VOR-DME Name Yuantan Frequency 108600 KHZ
Airport Weather Information & NOTAM
ADDS - METARS form results

(0422 UTC 16 October 2019)
Data provider http://aviationweather.gov/metar/data/
 
METAR text: ZGGG 160400Z 04002MPS 330V110 9999 SCT033 29/17 Q1019 NOSIG
Conditions at: ZGGG (GUANGZHOU/BAIYUN, CN) observed 0400 UTC 16 October 2019
Temperature: 29.0°C (84°F)
Dewpoint: 17.0°C (63°F) [RH = 48%]
Pressure (altimeter): 30.09 inches Hg (1019.0 mb)
Winds: from the NE (40 degrees) at 5 MPH (4 knots; 2.1 m/s)
Visibility: 6 or more miles (10+ km)
Ceiling: at least 12,000 feet AGL
Clouds: scattered clouds at 3300 feet AGL
Weather: no significant weather observed at this time

METAR text: ZGGG 160330Z 08003MPS 020V130 9999 SCT033 28/17 Q1019 NOSIG
Conditions at: ZGGG (GUANGZHOU/BAIYUN, CN) observed 0330 UTC 16 October 2019
Temperature: 28.0°C (82°F)
Dewpoint: 17.0°C (63°F) [RH = 51%]
Pressure (altimeter): 30.09 inches Hg (1019.0 mb)
Winds: from the E (80 degrees) at 7 MPH (6 knots; 3.1 m/s)
Visibility: 6 or more miles (10+ km)
Ceiling: at least 12,000 feet AGL
Clouds: scattered clouds at 3300 feet AGL
Weather: no significant weather observed at this time

Forecast for: ZGGG (GUANGZHOU/BAIYUN, CN)
Text: TAF ZGGG 160303Z 1606/1706 02003MPS CAVOK TX30/1607Z TN23/1622Z
Forecast period: 0600 UTC 16 October 2019 to 0600 UTC 17 October 2019
Forecast type: FROM: standard forecast or significant change
Winds: from the NNE (20 degrees) at 7 MPH (6 knots; 3.1 m/s)
Visibility: 6 or more miles 10+ km)
Ceiling: unknown
Clouds: missing
Weather: no significant weather forecast for this period